Pleasant City, Ohio
Current Conditions -  °F | °C
As of 9:53 AM on Friday 31 Oct 2014 (Local Time) from KZZV Reporting Station
Light Rain Light Rain  
Wind Chill: 39°   Ceiling: 6000
Heat Index: 42°   Visibility: 10mi
Dew Point: 38°   Wind: 5mph
Humidity: 85%   Direction: 210°SSW
Pressure: 29.96"   Gusts: NA
Location:  39.9°N, 81.55°W
Report Text: KZZV 311353Z AUTO 21004KT 10SM -RA OVC060 06/03 A2996 RMK AO2 RAE22B42 SLP149 P0001 T00560033
Loading
Personal Weather Stations






























Interactive Weather Map
Tropical Storm Tracking
New forecast layout! Learn more

10-Day Weather Forecast

Advertisements
Track Severe Weather on mobile